Kezdőlap
METAR-TAF:

METAR-TAF

Repülőterek :

Radom, Lengyelország

Radom-Sadków

földrajzi szélesség: 51-23-21N, földrajzi hosszúság: 21-12-49E, magasság: 186 m

Jelenlegi meteorológiai megfigyelések

A jelentés 10 perccel ezelõtt készült, 17:30 UTC
Észak-északkeleti szél 5 kt
Hőmérséklet -11°C
Páratartalom 66%
Légköri nyomás 1027 hPa
Látótávolság 10 km, vagy több
felhőtlen 1500 m magasságban, és nincs gomolyfelhõ

METAR: EPRA 251730Z 03005KT CAVOK M11/M16 Q1027

Idő: 18:40 (17:40 UTC)

Előrejelzés

A jelentés 10 perccel ezelõtt készült, 17:30 UTC
Az előrejelzés 25-én 18 óra UTC és 26-én 03 óra UTC között érvényes
Észak-északkeleti szél 4 kt
Látótávolság 10 km, vagy több
felhőtlen 1500 m magasságban, és nincs gomolyfelhõ

TAF: EPRA 251730Z 2518/2603 03004KT CAVOK

Meteorológiai megfigyelések és előrejelzések több, mint 4000 repülőtéren (METAR és TAF jelentéseket).

A térképen piros és sárga pontok jelzik az elérhető meteorológiai állomásokat.

Mozgassa az egeret a pont fölött, hogy megjelenjen az állomás neve.

Azután kattintson az időjárási megfigyelések és előrejelzések megtekintéséhez.

A térkép megváltoztatása: kattintson a fekete keresztel jelölt zöld gombra ráközelítéshez, a vonallal jelölt zöld gombra távolításhoz, vagy a zöld nyilakra a szomszédos térképek eléréséhez.


METAR-TAF: